sensor_id;sensor_type;location;lat;lon;timestamp;P1;durP1;ratioP1;P2;durP2;ratioP2
29414;SDS011;20303;48.302;11.914;2023-08-31T00:01:25;5.03;;;2.10;;
29414;SDS011;20303;48.302;11.914;2023-08-31T00:11:26;5.43;;;1.83;;
29414;SDS011;20303;48.302;11.914;2023-08-31T00:21:27;5.40;;;2.00;;
29414;SDS011;20303;48.302;11.914;2023-08-31T00:31:30;3.20;;;1.92;;
29414;SDS011;20303;48.302;11.914;2023-08-31T00:41:31;3.00;;;1.80;;
29414;SDS011;20303;48.302;11.914;2023-08-31T00:51:32;2.92;;;1.73;;
29414;SDS011;20303;48.302;11.914;2023-08-31T01:01:39;2.40;;;1.80;;
29414;SDS011;20303;48.302;11.914;2023-08-31T01:22:05;2.08;;;1.55;;
29414;SDS011;20303;48.302;11.914;2023-08-31T01:32:10;2.72;;;1.70;;
29414;SDS011;20303;48.302;11.914;2023-08-31T01:42:11;2.90;;;1.60;;
29414;SDS011;20303;48.302;11.914;2023-08-31T01:52:13;2.25;;;1.50;;
29414;SDS011;20303;48.302;11.914;2023-08-31T02:02:14;1.83;;;1.40;;
29414;SDS011;20303;48.302;11.914;2023-08-31T02:12:15;1.83;;;1.52;;
29414;SDS011;20303;48.302;11.914;2023-08-31T02:22:16;2.55;;;1.48;;
29414;SDS011;20303;48.302;11.914;2023-08-31T02:32:17;2.35;;;1.60;;
29414;SDS011;20303;48.302;11.914;2023-08-31T02:42:19;2.30;;;1.70;;
29414;SDS011;20303;48.302;11.914;2023-08-31T02:52:20;1.52;;;1.42;;
29414;SDS011;20303;48.302;11.914;2023-08-31T03:02:21;1.83;;;1.60;;
29414;SDS011;20303;48.302;11.914;2023-08-31T03:12:22;2.75;;;1.58;;
29414;SDS011;20303;48.302;11.914;2023-08-31T03:22:23;2.88;;;1.58;;
29414;SDS011;20303;48.302;11.914;2023-08-31T03:32:24;1.65;;;1.30;;
29414;SDS011;20303;48.302;11.914;2023-08-31T03:42:25;1.63;;;1.50;;
29414;SDS011;20303;48.302;11.914;2023-08-31T03:52:26;2.17;;;1.40;;
29414;SDS011;20303;48.302;11.914;2023-08-31T04:02:27;2.05;;;1.40;;
29414;SDS011;20303;48.302;11.914;2023-08-31T04:12:28;1.80;;;1.38;;
29414;SDS011;20303;48.302;11.914;2023-08-31T04:22:30;3.55;;;1.50;;
29414;SDS011;20303;48.302;11.914;2023-08-31T04:32:31;3.67;;;1.55;;
29414;SDS011;20303;48.302;11.914;2023-08-31T04:42:32;1.85;;;1.50;;
29414;SDS011;20303;48.302;11.914;2023-08-31T04:52:34;2.75;;;1.52;;
29414;SDS011;20303;48.302;11.914;2023-08-31T05:02:35;2.17;;;1.60;;
29414;SDS011;20303;48.302;11.914;2023-08-31T05:12:36;3.33;;;1.50;;
29414;SDS011;20303;48.302;11.914;2023-08-31T05:22:37;2.47;;;1.40;;
29414;SDS011;20303;48.302;11.914;2023-08-31T05:32:39;3.05;;;1.42;;
29414;SDS011;20303;48.302;11.914;2023-08-31T05:42:40;4.00;;;1.60;;
29414;SDS011;20303;48.302;11.914;2023-08-31T05:52:41;1.83;;;1.50;;
29414;SDS011;20303;48.302;11.914;2023-08-31T06:02:44;1.67;;;1.50;;
29414;SDS011;20303;48.302;11.914;2023-08-31T06:12:45;1.60;;;1.40;;
29414;SDS011;20303;48.302;11.914;2023-08-31T06:22:46;1.65;;;1.40;;
29414;SDS011;20303;48.302;11.914;2023-08-31T06:32:47;2.28;;;1.55;;
29414;SDS011;20303;48.302;11.914;2023-08-31T06:42:50;5.15;;;1.70;;
29414;SDS011;20303;48.302;11.914;2023-08-31T06:52:51;3.38;;;1.80;;
29414;SDS011;20303;48.302;11.914;2023-08-31T07:02:52;4.18;;;1.50;;
29414;SDS011;20303;48.302;11.914;2023-08-31T07:12:53;3.83;;;1.60;;
29414;SDS011;20303;48.302;11.914;2023-08-31T07:22:54;3.38;;;1.75;;
29414;SDS011;20303;48.302;11.914;2023-08-31T07:32:55;5.60;;;2.13;;
29414;SDS011;20303;48.302;11.914;2023-08-31T07:42:56;4.35;;;1.90;;
29414;SDS011;20303;48.302;11.914;2023-08-31T07:52:57;5.32;;;2.50;;
29414;SDS011;20303;48.302;11.914;2023-08-31T08:02:58;5.97;;;2.45;;
29414;SDS011;20303;48.302;11.914;2023-08-31T08:12:59;4.65;;;2.38;;
29414;SDS011;20303;48.302;11.914;2023-08-31T08:23:00;3.38;;;2.10;;
29414;SDS011;20303;48.302;11.914;2023-08-31T08:33:01;3.75;;;2.20;;
29414;SDS011;20303;48.302;11.914;2023-08-31T08:43:05;3.20;;;2.25;;
29414;SDS011;20303;48.302;11.914;2023-08-31T08:53:07;6.47;;;2.60;;
29414;SDS011;20303;48.302;11.914;2023-08-31T09:03:08;5.80;;;2.40;;
29414;SDS011;20303;48.302;11.914;2023-08-31T09:13:10;5.65;;;2.20;;
29414;SDS011;20303;48.302;11.914;2023-08-31T09:23:13;5.78;;;2.92;;
29414;SDS011;20303;48.302;11.914;2023-08-31T09:33:15;20.30;;;17.42;;
29414;SDS011;20303;48.302;11.914;2023-08-31T09:43:20;6.72;;;4.15;;
29414;SDS011;20303;48.302;11.914;2023-08-31T09:53:24;5.90;;;2.55;;
29414;SDS011;20303;48.302;11.914;2023-08-31T10:03:25;5.05;;;2.60;;
29414;SDS011;20303;48.302;11.914;2023-08-31T10:13:27;6.45;;;2.60;;
29414;SDS011;20303;48.302;11.914;2023-08-31T10:23:31;7.05;;;2.80;;
29414;SDS011;20303;48.302;11.914;2023-08-31T10:33:42;6.05;;;2.60;;
29414;SDS011;20303;48.302;11.914;2023-08-31T10:53:59;12.15;;;4.32;;
29414;SDS011;20303;48.302;11.914;2023-08-31T11:04:08;11.05;;;4.72;;
29414;SDS011;20303;48.302;11.914;2023-08-31T11:14:12;13.52;;;4.32;;
29414;SDS011;20303;48.302;11.914;2023-08-31T11:24:13;6.60;;;3.35;;
29414;SDS011;20303;48.302;11.914;2023-08-31T11:34:17;6.95;;;3.10;;
29414;SDS011;20303;48.302;11.914;2023-08-31T11:44:19;7.57;;;3.10;;
29414;SDS011;20303;48.302;11.914;2023-08-31T11:54:20;37.03;;;18.80;;
29414;SDS011;20303;48.302;11.914;2023-08-31T12:04:21;29.80;;;13.95;;
29414;SDS011;20303;48.302;11.914;2023-08-31T12:14:23;18.45;;;9.90;;
29414;SDS011;20303;48.302;11.914;2023-08-31T12:24:25;15.27;;;7.57;;
29414;SDS011;20303;48.302;11.914;2023-08-31T12:34:26;17.70;;;7.28;;
29414;SDS011;20303;48.302;11.914;2023-08-31T12:44:27;17.20;;;6.70;;
29414;SDS011;20303;48.302;11.914;2023-08-31T12:54:28;14.20;;;5.82;;
29414;SDS011;20303;48.302;11.914;2023-08-31T13:04:29;13.57;;;5.90;;
29414;SDS011;20303;48.302;11.914;2023-08-31T13:14:30;14.68;;;6.10;;
29414;SDS011;20303;48.302;11.914;2023-08-31T13:24:31;19.05;;;7.22;;
29414;SDS011;20303;48.302;11.914;2023-08-31T13:34:33;22.42;;;7.30;;
29414;SDS011;20303;48.302;11.914;2023-08-31T13:44:34;12.38;;;5.20;;
29414;SDS011;20303;48.302;11.914;2023-08-31T13:54:36;12.70;;;4.82;;
29414;SDS011;20303;48.302;11.914;2023-08-31T14:04:37;13.27;;;4.70;;
29414;SDS011;20303;48.302;11.914;2023-08-31T14:14:38;10.32;;;4.35;;
29414;SDS011;20303;48.302;11.914;2023-08-31T14:24:41;7.43;;;4.20;;
29414;SDS011;20303;48.302;11.914;2023-08-31T14:34:42;12.07;;;4.55;;
29414;SDS011;20303;48.302;11.914;2023-08-31T14:44:43;7.40;;;3.83;;
29414;SDS011;20303;48.302;11.914;2023-08-31T14:54:44;8.07;;;3.88;;
29414;SDS011;20303;48.302;11.914;2023-08-31T15:04:45;7.82;;;3.65;;
29414;SDS011;20303;48.302;11.914;2023-08-31T15:14:46;11.30;;;3.67;;
29414;SDS011;20303;48.302;11.914;2023-08-31T15:24:50;9.95;;;3.50;;
29414;SDS011;20303;48.302;11.914;2023-08-31T15:34:52;8.02;;;3.80;;
29414;SDS011;20303;48.302;11.914;2023-08-31T15:44:54;9.40;;;3.72;;
29414;SDS011;20303;48.302;11.914;2023-08-31T15:54:55;11.07;;;3.78;;
29414;SDS011;20303;48.302;11.914;2023-08-31T16:04:57;9.18;;;3.58;;
29414;SDS011;20303;48.302;11.914;2023-08-31T16:14:58;10.50;;;3.92;;
29414;SDS011;20303;48.302;11.914;2023-08-31T16:24:59;9.98;;;3.65;;
29414;SDS011;20303;48.302;11.914;2023-08-31T16:35:00;9.32;;;3.63;;
29414;SDS011;20303;48.302;11.914;2023-08-31T16:45:02;8.88;;;3.58;;
29414;SDS011;20303;48.302;11.914;2023-08-31T16:55:05;8.85;;;3.28;;
29414;SDS011;20303;48.302;11.914;2023-08-31T17:05:07;9.07;;;3.30;;
29414;SDS011;20303;48.302;11.914;2023-08-31T17:15:08;8.95;;;2.92;;
29414;SDS011;20303;48.302;11.914;2023-08-31T17:25:10;7.60;;;3.20;;
29414;SDS011;20303;48.302;11.914;2023-08-31T17:35:12;7.03;;;3.00;;
29414;SDS011;20303;48.302;11.914;2023-08-31T17:45:13;7.55;;;3.08;;
29414;SDS011;20303;48.302;11.914;2023-08-31T17:55:14;6.45;;;2.70;;
29414;SDS011;20303;48.302;11.914;2023-08-31T18:05:15;6.85;;;2.80;;
29414;SDS011;20303;48.302;11.914;2023-08-31T18:15:16;9.77;;;2.90;;
29414;SDS011;20303;48.302;11.914;2023-08-31T18:25:17;6.45;;;2.60;;
29414;SDS011;20303;48.302;11.914;2023-08-31T18:35:19;10.88;;;2.60;;
29414;SDS011;20303;48.302;11.914;2023-08-31T18:45:20;8.38;;;2.67;;
29414;SDS011;20303;48.302;11.914;2023-08-31T18:55:21;6.60;;;2.88;;
29414;SDS011;20303;48.302;11.914;2023-08-31T19:05:23;7.45;;;2.70;;
29414;SDS011;20303;48.302;11.914;2023-08-31T19:15:24;4.78;;;2.45;;
29414;SDS011;20303;48.302;11.914;2023-08-31T19:25:25;8.35;;;2.60;;
29414;SDS011;20303;48.302;11.914;2023-08-31T19:35:30;4.07;;;2.58;;
29414;SDS011;20303;48.302;11.914;2023-08-31T19:45:31;3.72;;;2.33;;
29414;SDS011;20303;48.302;11.914;2023-08-31T19:55:32;12.85;;;3.90;;
29414;SDS011;20303;48.302;11.914;2023-08-31T20:05:34;9.65;;;3.63;;
29414;SDS011;20303;48.302;11.914;2023-08-31T20:15:35;5.32;;;2.88;;
29414;SDS011;20303;48.302;11.914;2023-08-31T20:25:36;10.63;;;6.20;;
29414;SDS011;20303;48.302;11.914;2023-08-31T20:35:38;8.48;;;4.57;;
29414;SDS011;20303;48.302;11.914;2023-08-31T20:45:39;7.68;;;3.80;;
29414;SDS011;20303;48.302;11.914;2023-08-31T20:55:40;10.65;;;3.60;;
29414;SDS011;20303;48.302;11.914;2023-08-31T21:05:41;9.60;;;3.33;;
29414;SDS011;20303;48.302;11.914;2023-08-31T21:15:42;11.10;;;3.83;;
29414;SDS011;20303;48.302;11.914;2023-08-31T21:25:43;11.82;;;3.30;;
29414;SDS011;20303;48.302;11.914;2023-08-31T21:35:44;9.57;;;3.40;;
29414;SDS011;20303;48.302;11.914;2023-08-31T21:45:46;7.10;;;3.28;;
29414;SDS011;20303;48.302;11.914;2023-08-31T21:55:47;11.30;;;3.28;;
29414;SDS011;20303;48.302;11.914;2023-08-31T22:05:48;8.32;;;2.80;;
29414;SDS011;20303;48.302;11.914;2023-08-31T22:15:49;5.97;;;2.67;;
29414;SDS011;20303;48.302;11.914;2023-08-31T22:25:52;7.65;;;2.97;;
29414;SDS011;20303;48.302;11.914;2023-08-31T22:35:53;6.20;;;2.80;;
29414;SDS011;20303;48.302;11.914;2023-08-31T22:45:57;4.72;;;2.70;;
29414;SDS011;20303;48.302;11.914;2023-08-31T22:55:58;6.53;;;2.78;;
29414;SDS011;20303;48.302;11.914;2023-08-31T23:06:00;6.35;;;2.95;;
29414;SDS011;20303;48.302;11.914;2023-08-31T23:16:04;4.45;;;2.50;;
29414;SDS011;20303;48.302;11.914;2023-08-31T23:26:06;5.70;;;2.58;;
29414;SDS011;20303;48.302;11.914;2023-08-31T23:36:07;4.60;;;2.60;;
29414;SDS011;20303;48.302;11.914;2023-08-31T23:46:08;5.43;;;2.38;;
29414;SDS011;20303;48.302;11.914;2023-08-31T23:56:09;4.15;;;2.22;;
